Time;durP1;ratioP1;P1;durP2;ratioP2;P2;SDS_P1;SDS_P2;PMS_P1;PMS_P2;Temp;Humidity;BMP_temperature;BMP_pressure;BME280_temperature;BME280_humidity;BME280_pressure;Samples;Min_cycle;Max_cycle;Signal;HPM_P1;HPM_P2
2023/05/21 00:01:16;;;;;;;8.50;7.20;;;;;;;12.97;72.44;101120.95;1721821;82;25576;-46
2023/05/21 00:03:44;;;;;;;9.70;6.83;;;;;;;12.89;72.46;101110.28;1724110;83;27396;-47
2023/05/21 00:06:12;;;;;;;9.70;7.15;;;;;;;12.85;72.56;101116.05;1724189;83;25555;-46
2023/05/21 00:08:38;;;;;;;9.43;6.97;;;;;;;12.79;72.71;101115.13;1724141;83;25640;-46
2023/05/21 00:11:06;;;;;;;11.22;8.20;;;;;;;12.75;72.87;101115.47;1723966;83;25643;-48
2023/05/21 00:13:32;;;;;;;10.13;6.72;;;;;;;12.70;73.20;101118.55;1724140;83;25458;-48
2023/05/21 00:15:58;;;;;;;9.85;7.22;;;;;;;12.66;73.17;101116.17;1724084;83;27328;-48
2023/05/21 00:18:25;;;;;;;12.33;6.95;;;;;;;12.63;73.49;101119.52;1723974;83;33021;-47
2023/05/21 00:20:51;;;;;;;10.20;6.65;;;;;;;12.59;73.42;101118.50;1724114;83;25426;-47
2023/05/21 00:23:18;;;;;;;8.05;6.90;;;;;;;12.57;73.58;101123.42;1742637;82;25616;-47
2023/05/21 00:25:45;;;;;;;9.60;7.00;;;;;;;12.54;73.62;101122.67;1724099;83;25379;-47
2023/05/21 00:28:12;;;;;;;14.07;7.47;;;;;;;12.50;73.59;101115.69;1724089;83;27439;-48
2023/05/21 00:30:38;;;;;;;13.50;7.58;;;;;;;12.49;73.63;101114.63;1723997;83;25581;-49
2023/05/21 00:33:06;;;;;;;10.53;6.97;;;;;;;12.48;74.25;101119.26;1724105;83;25554;-47
2023/05/21 00:35:32;;;;;;;8.85;7.42;;;;;;;12.48;74.47;101117.08;1724028;83;26289;-48
2023/05/21 00:37:58;;;;;;;9.60;6.72;;;;;;;12.44;74.38;101118.23;1703537;83;25650;-47
2023/05/21 00:40:25;;;;;;;13.08;6.92;;;;;;;12.43;74.60;101114.47;1724060;83;27315;-45
2023/05/21 00:42:55;;;;;;;8.70;7.17;;;;;;;12.38;74.33;101117.28;1742596;82;25436;-46
2023/05/21 00:45:24;;;;;;;9.20;6.30;;;;;;;12.33;74.42;101114.13;1724150;83;25648;-45
2023/05/21 00:47:55;;;;;;;10.13;6.93;;;;;;;12.27;74.54;101116.68;1742940;82;25631;-45
2023/05/21 00:50:22;;;;;;;8.33;5.95;;;;;;;12.22;74.54;101117.57;1742702;82;25374;-45
2023/05/21 00:52:50;;;;;;;9.15;5.92;;;;;;;12.17;74.47;101115.51;1721661;82;27223;-45
2023/05/21 00:55:17;;;;;;;8.53;5.87;;;;;;;12.10;74.58;101114.55;1742606;81;25401;-46
2023/05/21 00:57:44;;;;;;;7.17;5.75;;;;;;;12.04;74.69;101117.91;1742648;82;25476;-46
2023/05/21 01:00:15;;;;;;;8.73;5.78;;;;;;;11.99;74.91;101118.56;1742582;82;27741;-48
2023/05/21 01:02:43;;;;;;;9.20;6.15;;;;;;;11.93;74.85;101117.27;1742676;82;25639;-48
2023/05/21 01:05:10;;;;;;;7.60;5.78;;;;;;;11.88;75.31;101119.23;1742638;82;27861;-48
2023/05/21 01:07:40;;;;;;;8.65;6.08;;;;;;;11.84;75.18;101120.38;1742510;81;27146;-46
2023/05/21 01:10:10;;;;;;;8.65;6.22;;;;;;;11.79;75.32;101119.12;1722167;81;25439;-47
2023/05/21 01:12:39;;;;;;;6.62;5.58;;;;;;;11.74;75.42;101122.70;1756479;81;26451;-47
2023/05/21 01:15:09;;;;;;;11.30;6.00;;;;;;;11.69;75.50;101116.58;1756501;81;25555;-49
2023/05/21 01:17:38;;;;;;;9.05;6.22;;;;;;;11.65;75.68;101120.99;1756426;81;27966;-47
2023/05/21 01:20:10;;;;;;;8.93;6.00;;;;;;;11.60;75.63;101123.22;1756639;81;25662;-47
2023/05/21 01:22:53;;;;;;;8.23;5.78;;;;;;;11.54;75.94;101119.80;1756505;81;25617;-46
2023/05/21 01:25:21;;;;;;;7.53;5.87;;;;;;;11.50;75.85;101128.24;1756433;81;25756;-46
2023/05/21 01:27:50;;;;;;;9.18;5.45;;;;;;;11.44;75.89;101121.84;1756620;81;25378;-50
2023/05/21 01:30:19;;;;;;;16.75;6.53;;;;;;;11.39;76.07;101120.00;1756457;81;27349;-49
2023/05/21 01:33:03;;;;;;;;;;;;;;;11.33;76.14;101116.58;1759001;81;25670;-47
2023/05/21 01:35:39;;;;;;;8.88;5.45;;;;;;;11.30;76.46;101111.74;1689934;84;25476;-47
2023/05/21 01:38:25;;;;;;;7.37;5.47;;;;;;;11.25;76.28;101115.88;1689812;84;25727;-46
2023/05/21 01:41:02;;;;;;;9.48;5.83;;;;;;;11.20;76.63;101114.08;1689975;84;25610;-46
2023/05/21 01:43:33;;;;;;;7.42;5.83;;;;;;;11.15;76.55;101119.56;1689866;84;27351;-46
2023/05/21 01:46:01;;;;;;;8.18;5.83;;;;;;;11.11;76.77;101113.10;1689809;84;25661;-46
2023/05/21 01:48:30;;;;;;;10.88;6.17;;;;;;;11.08;76.89;101112.88;1689846;84;25608;-47
2023/05/21 01:51:01;;;;;;;7.58;5.50;;;;;;;11.04;77.15;101105.90;1666400;84;25770;-46
2023/05/21 01:53:28;;;;;;;9.18;5.42;;;;;;;11.00;77.19;101107.03;1689864;84;25569;-49
2023/05/21 01:55:54;;;;;;;8.95;6.33;;;;;;;10.97;77.18;101106.81;1689803;84;29583;-50
2023/05/21 01:58:23;;;;;;;9.15;5.85;;;;;;;10.94;77.41;101102.77;1689795;84;25503;-50
2023/05/21 02:00:53;;;;;;;6.85;5.53;;;;;;;10.91;77.40;101107.97;1689876;84;25467;-47
2023/05/21 02:03:20;;;;;;;8.50;5.83;;;;;;;10.87;77.40;101109.10;1689882;84;25622;-50
2023/05/21 02:05:47;;;;;;;12.93;5.53;;;;;;;10.84;77.62;101106.97;1689822;84;25655;-47
2023/05/21 02:08:14;;;;;;;7.22;5.55;;;;;;;10.80;77.66;101104.59;1689870;84;27359;-49
2023/05/21 02:10:41;;;;;;;8.73;5.92;;;;;;;10.77;77.91;101109.23;1689643;84;27134;-48
2023/05/21 02:13:07;;;;;;;7.05;5.30;;;;;;;10.75;78.05;101108.72;1750075;81;25436;-47
2023/05/21 02:15:33;;;;;;;8.73;5.78;;;;;;;10.71;78.00;101111.73;1751459;81;25738;-49
2023/05/21 02:18:00;;;;;;;7.65;5.37;;;;;;;10.68;78.00;101105.57;1756519;81;25452;-46
2023/05/21 02:20:27;;;;;;;8.53;6.40;;;;;;;10.64;77.93;101107.50;1756438;81;27465;-47
2023/05/21 02:22:53;;;;;;;9.65;6.05;;;;;;;10.62;78.09;101116.45;1756424;81;25439;-46
2023/05/21 02:25:20;;;;;;;8.43;6.10;;;;;;;10.61;78.43;101109.42;1756414;81;25541;-48
2023/05/21 02:27:47;;;;;;;7.33;5.60;;;;;;;10.60;78.58;101106.45;1756402;81;25715;-46
2023/05/21 02:30:15;;;;;;;7.53;5.78;;;;;;;10.58;78.58;101108.64;1756452;81;25553;-46
2023/05/21 02:32:43;;;;;;;8.75;5.60;;;;;;;10.55;78.47;101103.80;1756432;81;27356;-47
2023/05/21 02:35:12;;;;;;;9.90;5.58;;;;;;;10.53;78.62;101100.59;1756321;81;25546;-47
2023/05/21 02:37:40;;;;;;;8.20;5.87;;;;;;;10.51;78.64;101104.69;1756543;81;25627;-46
2023/05/21 02:40:09;;;;;;;8.30;5.92;;;;;;;10.51;78.71;101097.92;1756350;81;25783;-47
2023/05/21 02:42:38;;;;;;;7.55;6.12;;;;;;;10.51;78.88;101103.34;1751454;81;25404;-46
2023/05/21 02:45:11;;;;;;;13.13;6.92;;;;;;;10.48;78.74;101093.89;1756554;81;28023;-46
2023/05/21 02:47:37;;;;;;;8.43;5.72;;;;;;;10.48;78.94;101102.00;1756343;81;25675;-48
2023/05/21 02:50:07;;;;;;;10.58;6.15;;;;;;;10.45;79.11;101100.69;1726391;81;25418;-46
2023/05/21 02:52:34;;;;;;;11.43;6.05;;;;;;;10.44;79.12;101097.72;1726176;81;26149;-48
2023/05/21 02:55:01;;;;;;;7.30;5.37;;;;;;;10.43;79.27;101097.45;1756517;81;25624;-47
2023/05/21 02:57:27;;;;;;;7.17;5.67;;;;;;;10.44;79.33;101096.92;1756375;81;27310;-46
2023/05/21 02:59:53;;;;;;;10.65;6.20;;;;;;;10.44;79.50;101096.92;1756336;81;25440;-46
2023/05/21 03:02:19;;;;;;;9.73;6.17;;;;;;;10.44;79.50;101104.48;1756563;81;25399;-46
2023/05/21 03:04:45;;;;;;;7.70;6.30;;;;;;;10.45;79.52;101103.92;1756468;81;25708;-47
2023/05/21 03:07:16;;;;;;;6.70;5.53;;;;;;;10.43;79.34;101110.17;1756506;81;25369;-49
2023/05/21 03:09:43;;;;;;;10.38;6.35;;;;;;;10.41;79.25;101103.70;1756411;81;27307;-47
2023/05/21 03:12:11;;;;;;;8.28;6.30;;;;;;;10.41;79.48;101103.70;1756175;81;27235;-46
2023/05/21 03:14:37;;;;;;;7.60;5.87;;;;;;;10.43;79.79;101104.20;1756417;81;25570;-47
2023/05/21 03:17:05;;;;;;;11.63;6.00;;;;;;;10.42;79.75;101103.14;1726518;81;26418;-46
2023/05/21 03:19:35;;;;;;;11.08;5.95;;;;;;;10.45;80.00;101103.92;1756441;81;25448;-46
2023/05/21 03:22:03;;;;;;;9.48;5.67;;;;;;;10.45;80.12;101101.22;1756372;81;27309;-46
2023/05/21 03:24:31;;;;;;;8.00;5.45;;;;;;;10.47;79.97;101093.61;1756308;81;25596;-48
2023/05/21 03:27:02;;;;;;;8.43;5.80;;;;;;;10.50;80.03;101094.95;1756407;80;25387;-46
2023/05/21 03:29:28;;;;;;;7.15;5.90;;;;;;;10.52;80.23;101092.23;1756405;81;25652;-45
2023/05/21 03:31:54;;;;;;;6.65;5.35;;;;;;;10.55;80.41;101094.34;1756378;81;25437;-47
2023/05/21 03:34:22;;;;;;;6.58;5.08;;;;;;;10.58;80.61;101093.77;1756395;81;27303;-46
2023/05/21 03:36:50;;;;;;;11.10;5.50;;;;;;;10.63;80.77;101092.91;1756283;81;25682;-46
2023/05/21 03:39:16;;;;;;;8.70;6.25;;;;;;;10.68;80.80;101093.39;1756330;81;25380;-46
2023/05/21 03:41:43;;;;;;;9.08;5.67;;;;;;;10.71;81.00;101091.44;1726393;81;25653;-46
2023/05/21 03:44:09;;;;;;;10.45;6.30;;;;;;;10.76;81.17;101094.08;1726501;81;25576;-47
2023/05/21 03:46:35;;;;;;;10.13;5.70;;;;;;;10.79;81.15;101094.30;1756407;81;27360;-46
2023/05/21 03:49:01;;;;;;;6.17;5.50;;;;;;;10.86;81.32;101086.39;1756329;81;25612;-46
2023/05/21 03:51:31;;;;;;;9.25;5.42;;;;;;;10.89;81.29;101086.60;1756407;81;25452;-47
2023/05/21 03:54:00;;;;;;;7.70;6.90;;;;;;;10.95;81.34;101084.09;1756651;80;25716;-47
2023/05/21 03:56:26;;;;;;;9.03;6.27;;;;;;;11.01;81.25;101082.91;1756812;81;25412;-50
2023/05/21 03:58:53;;;;;;;9.03;6.10;;;;;;;11.09;81.52;101082.81;1752124;80;27991;-46
2023/05/21 04:01:19;;;;;;;7.20;5.40;;;;;;;11.15;81.38;101087.06;1794378;79;27211;-47
2023/05/21 04:03:45;;;;;;;8.10;5.70;;;;;;;11.19;80.82;101084.58;1780496;80;25545;-47
2023/05/21 04:06:12;;;;;;;9.68;6.55;;;;;;;11.26;80.45;101093.12;1794376;80;25520;-47
2023/05/21 04:08:38;;;;;;;8.60;5.42;;;;;;;11.32;80.28;101093.84;1780511;80;25582;-47
2023/05/21 04:11:04;;;;;;;10.70;6.15;;;;;;;11.37;80.05;101093.77;1778992;80;27369;-46
2023/05/21 04:13:31;;;;;;;6.75;5.25;;;;;;;11.45;80.22;101092.31;1764546;81;25595;-47
2023/05/21 04:15:57;;;;;;;7.10;4.65;;;;;;;11.54;80.27;101087.81;1747120;81;25448;-46
2023/05/21 04:18:24;;;;;;;6.03;4.90;;;;;;;11.60;79.63;101083.94;1747127;81;25648;-47
2023/05/21 04:20:51;;;;;;;4.90;4.30;;;;;;;11.68;79.28;101087.86;1764681;81;25562;-46
2023/05/21 04:23:17;;;;;;;6.78;5.28;;;;;;;11.77;79.22;101090.16;1764633;81;27323;-44
2023/05/21 04:25:43;;;;;;;7.20;4.90;;;;;;;11.84;79.52;101082.44;1764526;81;25563;-47
2023/05/21 04:28:09;;;;;;;11.33;4.78;;;;;;;11.93;79.07;101078.52;1764598;81;25356;-47
2023/05/21 04:30:36;;;;;;;8.05;4.60;;;;;;;12.04;79.28;101081.87;1747323;81;25763;-48
2023/05/21 04:33:03;;;;;;;6.78;3.55;;;;;;;12.12;78.97;101080.62;1764752;81;25417;-47
2023/05/21 04:35:30;;;;;;;4.08;3.50;;;;;;;12.21;78.33;101085.31;1764593;81;27385;-47
2023/05/21 04:37:56;;;;;;;8.25;4.25;;;;;;;12.30;77.98;101082.17;1764491;81;25729;-45
2023/05/21 04:40:23;;;;;;;4.83;4.28;;;;;;;12.40;77.60;101079.27;1764580;81;25379;-46
2023/05/21 04:42:50;;;;;;;6.03;3.90;;;;;;;12.49;77.31;101069.86;1764479;81;25717;-45
2023/05/21 04:45:18;;;;;;;6.45;3.87;;;;;;;12.58;76.98;101072.13;1764686;81;25615;-45
2023/05/21 04:47:44;;;;;;;9.80;4.55;;;;;;;12.67;76.67;101067.58;1747362;81;27438;-45
2023/05/21 04:50:11;;;;;;;7.25;4.12;;;;;;;12.79;76.54;101068.98;1764479;81;25592;-45
2023/05/21 04:52:39;;;;;;;7.53;3.92;;;;;;;12.88;76.24;101067.93;1764622;81;25397;-45
2023/05/21 04:55:09;;;;;;;4.42;3.77;;;;;;;12.98;76.38;101062.83;1764558;81;25602;-45
2023/05/21 04:57:35;;;;;;;4.72;3.67;;;;;;;13.11;74.83;101065.80;1764313;81;25551;-45
2023/05/21 05:00:05;;;;;;;6.17;3.60;;;;;;;13.21;74.75;101066.39;1764612;81;26823;-45
2023/05/21 05:02:30;;;;;;;5.00;3.23;;;;;;;13.33;74.17;101063.69;1746002;81;25568;-46
2023/05/21 05:04:56;;;;;;;3.62;3.20;;;;;;;13.45;73.72;101061.25;1764676;81;25616;-45
2023/05/21 05:07:22;;;;;;;7.62;4.12;;;;;;;13.56;73.72;101063.94;1764665;81;25681;-45
2023/05/21 05:09:48;;;;;;;12.07;6.25;;;;;;;13.69;73.93;101068.23;1764739;81;25350;-48
2023/05/21 05:12:14;;;;;;;5.55;3.70;;;;;;;13.81;73.75;101065.77;1764477;80;27288;-47
2023/05/21 05:14:40;;;;;;;6.87;3.47;;;;;;;13.91;73.41;101068.23;1764495;81;25374;-45
2023/05/21 05:17:08;;;;;;;4.97;3.33;;;;;;;14.05;72.91;101065.41;1764535;81;25434;-45
2023/05/21 05:19:35;;;;;;;5.10;3.25;;;;;;;14.18;72.07;101062.32;1764646;81;25589;-45
2023/05/21 05:22:01;;;;;;;4.03;3.20;;;;;;;14.32;71.62;101064.39;1747018;81;25401;-46
2023/05/21 05:24:28;;;;;;;6.03;3.30;;;;;;;14.49;71.26;101061.45;1764553;81;27322;-45
2023/05/21 05:26:54;;;;;;;4.12;3.33;;;;;;;14.68;70.73;101064.74;1764484;81;33009;-45
2023/05/21 05:29:20;;;;;;;6.03;3.17;;;;;;;14.89;70.60;101063.56;1764520;81;25591;-45
2023/05/21 05:31:46;;;;;;;6.53;3.20;;;;;;;15.10;69.88;101062.39;1764560;81;25674;-45
2023/05/21 05:34:12;;;;;;;4.40;3.17;;;;;;;15.32;69.41;101059.23;1764606;81;25607;-45
2023/05/21 05:36:38;;;;;;;4.00;2.72;;;;;;;15.57;69.39;101071.23;1764549;81;27395;-46
2023/05/21 05:39:05;;;;;;;5.72;2.92;;;;;;;15.81;69.21;101072.65;1764455;81;25575;-47
2023/05/21 05:41:31;;;;;;;4.70;2.60;;;;;;;16.06;68.70;101065.52;1764617;81;25456;-46
2023/05/21 05:43:58;;;;;;;8.78;3.00;;;;;;;16.30;67.94;101062.77;1764576;81;25623;-46
2023/05/21 05:46:24;;;;;;;4.30;2.80;;;;;;;16.52;66.68;101060.31;1764684;81;25375;-46
2023/05/21 05:48:50;;;;;;;5.40;2.45;;;;;;;16.73;65.54;101065.80;1764659;81;27351;-46
2023/05/21 05:51:17;;;;;;;4.70;2.85;;;;;;;16.93;65.16;101053.31;1764503;81;25781;-47
2023/05/21 05:53:43;;;;;;;4.92;2.75;;;;;;;17.13;65.24;101053.86;1764539;81;25357;-46
2023/05/21 05:56:09;;;;;;;4.20;2.50;;;;;;;17.33;64.15;101049.52;1764547;81;25697;-47
2023/05/21 05:58:35;;;;;;;3.00;2.60;;;;;;;17.51;64.23;101050.70;1764566;81;25347;-47
2023/05/21 06:01:02;;;;;;;10.90;3.15;;;;;;;17.68;63.41;101050.51;1764575;81;27520;-48
2023/05/21 06:03:28;;;;;;;22.65;4.35;;;;;;;17.82;62.99;101051.55;1764474;81;26142;-45
2023/05/21 06:05:55;;;;;;;6.03;3.25;;;;;;;17.97;63.10;101052.87;1764561;81;25421;-47
2023/05/21 06:08:21;;;;;;;4.78;2.72;;;;;;;18.09;61.77;101048.77;1764508;81;26168;-47
2023/05/21 06:10:47;;;;;;;3.85;2.65;;;;;;;18.22;61.38;101051.52;1764598;81;25645;-46
2023/05/21 06:13:13;;;;;;;3.17;2.58;;;;;;;18.35;61.37;101049.56;1764446;79;27342;-47
2023/05/21 06:15:41;;;;;;;4.85;2.33;;;;;;;18.49;61.31;101052.77;1747037;81;25606;-47
2023/05/21 06:18:08;;;;;;;5.92;2.77;;;;;;;18.65;61.37;101055.00;1764465;80;25598;-46
2023/05/21 06:20:35;;;;;;;4.65;2.83;;;;;;;18.82;60.56;101047.67;1764522;81;25658;-47
2023/05/21 06:23:01;;;;;;;3.90;2.50;;;;;;;18.98;60.54;101044.44;1764531;81;25611;-47
2023/05/21 06:25:28;;;;;;;3.52;2.10;;;;;;;19.14;59.77;101047.84;1764566;81;26742;-49
2023/05/21 06:27:55;;;;;;;5.17;2.70;;;;;;;19.29;58.84;101049.01;1764422;81;25428;-49
2023/05/21 06:30:22;;;;;;;5.30;2.70;;;;;;;19.45;58.73;101043.58;1764520;81;25468;-47
2023/05/21 06:32:48;;;;;;;10.25;2.87;;;;;;;19.61;57.72;101052.61;1764524;81;25614;-46
2023/05/21 06:35:14;;;;;;;3.33;2.47;;;;;;;19.76;56.96;101046.95;1764566;81;25412;-47
2023/05/21 06:37:41;;;;;;;4.67;2.72;;;;;;;19.94;57.32;101052.33;1764477;81;27319;-46
2023/05/21 06:40:11;;;;;;;3.15;2.42;;;;;;;20.18;57.08;101053.30;1764540;81;25439;-46
2023/05/21 06:42:37;;;;;;;5.65;2.35;;;;;;;20.42;56.76;101053.66;1747284;81;25481;-48
2023/05/21 06:45:06;;;;;;;5.15;2.47;;;;;;;20.64;55.88;101046.72;1764548;81;25580;-46
2023/05/21 06:47:32;;;;;;;6.30;2.92;;;;;;;20.86;54.96;101043.84;1760427;81;25619;-48
2023/05/21 06:49:59;;;;;;;7.95;3.10;;;;;;;21.07;55.04;101051.73;1764524;81;27353;-50
2023/05/21 06:52:26;;;;;;;4.40;2.90;;;;;;;21.35;54.26;101053.47;1764406;81;25468;-47
2023/05/21 06:54:52;;;;;;;2.90;2.62;;;;;;;21.56;52.89;101041.29;1764553;81;25566;-48
2023/05/21 06:57:19;;;;;;;3.85;2.47;;;;;;;21.79;52.68;101042.66;1764471;81;25605;-48
2023/05/21 06:59:45;;;;;;;7.17;2.27;;;;;;;22.03;51.84;101037.94;1746675;81;25642;-48
2023/05/21 07:02:11;;;;;;;4.37;2.77;;;;;;;22.24;51.47;101031.39;1764493;81;27363;-45
2023/05/21 07:04:37;;;;;;;5.25;3.40;;;;;;;22.55;51.60;101032.25;1764383;81;25563;-45
2023/05/21 07:07:04;;;;;;;8.48;2.90;;;;;;;22.83;50.70;101031.84;1764476;81;25535;-45
2023/05/21 07:09:31;;;;;;;6.40;2.50;;;;;;;23.10;49.41;101034.53;1764445;81;25617;-46
2023/05/21 07:11:57;;;;;;;4.72;2.62;;;;;;;23.34;48.41;101026.31;1764459;80;25423;-45
2023/05/21 07:14:25;;;;;;;4.15;3.02;;;;;;;23.62;48.61;101025.02;1764520;81;27321;-44
2023/05/21 07:16:52;;;;;;;4.12;2.72;;;;;;;23.95;48.29;101023.34;1764452;81;25417;-46
2023/05/21 07:19:19;;;;;;;3.65;2.05;;;;;;;24.24;47.24;101023.73;1764488;81;25507;-46
2023/05/21 07:21:46;;;;;;;4.40;2.80;;;;;;;24.54;47.11;101027.48;1764504;81;26555;-47
2023/05/21 07:24:12;;;;;;;4.62;2.60;;;;;;;24.80;45.94;101023.67;1764570;81;25180;-46
2023/05/21 07:26:39;;;;;;;4.87;2.42;;;;;;;25.06;45.61;101025.33;1747036;81;28044;-45
2023/05/21 07:29:06;;;;;;;5.22;2.55;;;;;;;25.37;44.98;101029.20;1764573;81;25539;-46
2023/05/21 07:31:32;;;;;;;4.15;2.50;;;;;;;25.67;44.60;101024.69;1764659;81;25599;-45
2023/05/21 07:33:58;;;;;;;6.70;2.40;;;;;;;25.97;44.14;101018.78;1764646;81;25595;-45
2023/05/21 07:36:25;;;;;;;3.35;2.33;;;;;;;26.25;43.50;101019.31;1747303;81;25602;-45
2023/05/21 07:38:51;;;;;;;2.83;1.92;;;;;;;26.49;42.37;101016.89;1764592;81;27314;-44
2023/05/21 07:41:18;;;;;;;4.30;2.85;;;;;;;26.70;41.67;101023.58;1764549;81;25790;-45
2023/05/21 07:43:45;;;;;;;5.50;2.70;;;;;;;26.88;40.02;101019.35;1764685;81;25546;-45
2023/05/21 07:46:11;;;;;;;7.28;3.00;;;;;;;27.01;39.56;101021.87;1764582;81;27857;-44
2023/05/21 07:48:37;;;;;;;4.53;2.20;;;;;;;27.15;38.84;101016.83;1764722;81;25543;-45
2023/05/21 07:51:05;;;;;;;3.87;2.37;;;;;;;27.26;38.34;101017.56;1764608;81;29624;-46
2023/05/21 07:53:32;;;;;;;6.85;2.60;;;;;;;27.36;38.03;101024.25;1764595;81;25550;-46
2023/05/21 07:56:01;;;;;;;5.70;2.30;;;;;;;27.41;37.27;101013.32;1764677;81;25461;-45
2023/05/21 07:58:27;;;;;;;;;;;;;;;27.50;37.24;101018.62;1767231;81;25413;-45
2023/05/21 08:00:53;;;;;;;6.75;2.33;;;;;;;27.68;36.55;101019.07;1737708;81;25502;-48
2023/05/21 08:03:19;;;;;;;7.05;2.45;;;;;;;27.81;36.38;101023.55;1764726;81;27308;-47
2023/05/21 08:05:47;;;;;;;4.95;2.00;;;;;;;27.94;36.29;101013.50;1764584;81;25442;-45
2023/05/21 08:08:18;;;;;;;2.57;1.90;;;;;;;28.12;35.55;101016.91;1764905;81;25446;-45
2023/05/21 08:10:46;;;;;;;3.55;2.45;;;;;;;28.24;34.70;101009.25;1764432;81;25678;-45
2023/05/21 08:13:16;;;;;;;4.12;2.30;;;;;;;28.28;34.04;101019.72;1764722;80;25574;-46
2023/05/21 08:15:43;;;;;;;4.83;2.45;;;;;;;28.38;34.33;101009.08;1746718;81;28004;-44
2023/05/21 08:18:10;;;;;;;4.35;1.90;;;;;;;28.49;33.71;101013.16;1764519;81;25658;-45
2023/05/21 08:20:37;;;;;;;6.65;2.00;;;;;;;28.61;33.64;101011.24;1764638;81;25607;-42
2023/05/21 08:23:03;;;;;;;4.03;2.70;;;;;;;28.69;33.15;101006.39;1764570;81;25675;-44
2023/05/21 08:25:30;;;;;;;4.60;2.10;;;;;;;28.79;33.83;101009.64;1764664;81;25575;-44
2023/05/21 08:27:57;;;;;;;4.20;2.42;;;;;;;29.12;33.08;101005.02;1764696;81;27385;-45
2023/05/21 08:30:23;;;;;;;3.58;2.05;;;;;;;29.29;32.90;101003.21;1764393;81;25788;-44
2023/05/21 08:32:50;;;;;;;9.08;2.37;;;;;;;29.47;32.88;101002.92;1763217;81;25779;-45
2023/05/21 08:35:16;;;;;;;2.08;1.95;;;;;;;29.69;32.80;100998.56;1763479;81;25680;-48
2023/05/21 08:37:42;;;;;;;2.95;1.80;;;;;;;29.87;31.39;100993.33;1764637;81;25366;-44
2023/05/21 08:40:11;;;;;;;5.47;2.12;;;;;;;29.85;31.80;100997.13;1764609;81;27281;-45
2023/05/21 08:42:48;;;;;;;4.95;2.45;;;;;;;29.84;31.27;100989.99;1764718;81;25445;-50
2023/05/21 08:45:21;;;;;;;2.50;2.30;;;;;;;29.91;31.06;100993.42;1764629;81;25655;-46
2023/05/21 08:47:56;;;;;;;4.67;2.00;;;;;;;30.09;31.28;100993.73;1764616;81;25690;-46
2023/05/21 08:50:26;;;;;;;4.15;2.10;;;;;;;30.31;29.49;100989.92;1764706;81;25438;-47
2023/05/21 08:52:54;;;;;;;2.70;1.87;;;;;;;30.47;29.89;100994.80;1764663;81;27471;-48
2023/05/21 08:55:22;;;;;;;3.35;1.85;;;;;;;30.29;28.71;100994.53;1764537;81;25675;-46
2023/05/21 08:57:49;;;;;;;2.83;2.07;;;;;;;30.06;28.50;100992.56;1764904;81;25610;-47
2023/05/21 09:00:19;;;;;;;4.55;1.80;;;;;;;30.04;28.72;100984.46;1764630;81;25615;-46
2023/05/21 09:02:46;;;;;;;5.17;2.17;;;;;;;30.24;29.41;100995.61;1747423;81;25463;-47
2023/05/21 09:05:14;;;;;;;8.05;2.50;;;;;;;30.46;28.30;100988.44;1764620;81;27322;-47
2023/05/21 09:07:46;;;;;;;3.30;2.00;;;;;;;30.41;28.36;100985.34;1764678;81;25376;-49
2023/05/21 09:10:14;;;;;;;7.65;1.87;;;;;;;30.37;27.66;100983.25;1764614;81;25376;-47
2023/05/21 09:12:41;;;;;;;8.75;2.30;;;;;;;29.92;27.07;100990.05;1764514;80;25645;-49
2023/05/21 09:15:10;;;;;;;6.67;2.45;;;;;;;29.94;28.17;100999.55;1764671;81;25469;-48
2023/05/21 09:17:36;;;;;;;;;;;;;;;30.22;28.18;100998.83;1767251;81;27228;-47
2023/05/21 09:20:14;;;;;;;6.37;2.92;;;;;;;30.41;27.61;100990.92;1764470;81;25515;-46
2023/05/21 09:22:49;;;;;;;6.67;2.50;;;;;;;30.46;27.53;100984.84;1747705;81;25380;-48
2023/05/21 09:25:22;;;;;;;3.40;2.67;;;;;;;30.76;28.43;100973.27;1764576;81;26388;-48
2023/05/21 09:27:49;;;;;;;3.55;2.62;;;;;;;31.09;27.51;100981.11;1764693;81;25618;-48
2023/05/21 09:30:17;;;;;;;6.10;2.02;;;;;;;31.23;27.41;100984.98;1764599;81;27108;-47
2023/05/21 09:32:48;;;;;;;4.62;1.92;;;;;;;31.12;26.78;100980.86;1764654;81;25410;-48
2023/05/21 09:35:15;;;;;;;4.03;2.05;;;;;;;30.90;26.89;100974.33;1764228;80;25625;-47
2023/05/21 09:37:44;;;;;;;5.00;2.08;;;;;;;30.88;27.17;100973.98;1764519;81;25616;-49
2023/05/21 09:40:22;;;;;;;3.45;2.20;;;;;;;30.99;27.21;100969.57;1764556;81;25572;-46
2023/05/21 09:42:53;;;;;;;3.55;2.00;;;;;;;30.84;26.85;100978.88;1764695;81;27980;-45
2023/05/21 09:45:23;;;;;;;2.30;2.10;;;;;;;30.89;27.23;100969.37;1764478;81;25380;-47
2023/05/21 09:47:52;;;;;;;2.67;2.15;;;;;;;31.00;26.91;100975.34;1764749;81;25465;-47
2023/05/21 09:50:27;;;;;;;3.35;2.17;;;;;;;30.88;26.19;100978.17;1764602;81;26233;-47
2023/05/21 09:52:55;;;;;;;2.92;2.10;;;;;;;30.60;25.31;100974.80;1764632;81;25439;-44
2023/05/21 09:55:23;;;;;;;5.12;2.02;;;;;;;30.23;26.17;100969.73;1764832;81;27254;-49
2023/05/21 09:57:52;;;;;;;2.70;2.33;;;;;;;30.19;26.58;100969.02;1764475;81;25436;-46
2023/05/21 10:00:27;;;;;;;6.28;2.40;;;;;;;30.39;27.18;100960.66;1764729;81;25423;-46
2023/05/21 10:02:57;;;;;;;3.15;2.27;;;;;;;30.57;26.53;100973.48;1764590;81;25614;-48
2023/05/21 10:05:30;;;;;;;4.17;2.10;;;;;;;30.51;26.00;100964.22;1764605;81;25619;-46
2023/05/21 10:08:03;;;;;;;2.50;1.80;;;;;;;30.40;25.62;100969.22;1764587;81;27315;-46
2023/05/21 10:10:32;;;;;;;14.58;11.35;;;;;;;30.07;26.04;100961.27;1764511;81;25713;-46
2023/05/21 10:13:08;;;;;;;8.50;4.67;;;;;;;30.10;26.59;100962.59;1764572;80;25483;-45
2023/05/21 10:15:49;;;;;;;5.25;2.47;;;;;;;30.32;26.40;100965.75;1764574;81;25646;-47
2023/05/21 10:18:18;;;;;;;5.42;2.00;;;;;;;30.33;26.82;100952.60;1764613;81;25542;-48
2023/05/21 10:20:46;;;;;;;3.33;2.08;;;;;;;30.49;26.09;100958.25;1764598;81;27929;-46
2023/05/21 10:23:13;;;;;;;6.10;2.50;;;;;;;30.56;25.19;100962.90;1764438;81;25633;-49
2023/05/21 10:25:41;;;;;;;3.47;1.77;;;;;;;30.20;25.41;100968.41;1764631;81;25151;-51
2023/05/21 10:28:07;;;;;;;4.00;2.02;;;;;;;30.10;26.50;100960.42;1764527;81;25659;-51
2023/05/21 10:30:36;;;;;;;4.72;2.25;;;;;;;30.38;26.06;100918.64;1764615;81;25526;-49
2023/05/21 10:33:05;;;;;;;4.17;2.27;;;;;;;30.39;25.84;100963.45;1764742;81;27936;-49
2023/05/21 10:35:33;;;;;;;4.47;2.47;;;;;;;30.29;26.24;100956.05;1764602;81;25621;-49
2023/05/21 10:38:04;;;;;;;4.90;2.58;;;;;;;30.43;26.24;100948.05;1764711;81;25557;-49
2023/05/21 10:40:30;;;;;;;3.45;2.27;;;;;;;30.62;27.01;100942.27;1764489;81;27825;-49
2023/05/21 10:43:21;;;;;;;5.22;2.10;;;;;;;30.94;27.12;100945.77;1764530;81;25424;-48
2023/05/21 10:46:16;;;;;;;3.87;2.02;;;;;;;31.17;26.69;100938.44;1764676;81;27335;-48
2023/05/21 10:49:21;;;;;;;1.95;1.75;;;;;;;31.20;25.76;100943.16;1764188;80;25623;-48
2023/05/21 10:52:16;;;;;;;3.92;2.15;;;;;;;31.41;25.68;100944.63;1764475;81;25429;-49
2023/05/21 10:54:54;;;;;;;3.52;1.90;;;;;;;31.40;25.19;100946.64;1764682;81;25615;-47
2023/05/21 10:57:52;;;;;;;3.87;2.00;;;;;;;31.16;24.68;100950.23;1764963;81;25574;-46
2023/05/21 11:00:20;;;;;;;6.97;2.22;;;;;;;30.80;24.21;100951.03;1743450;82;27906;-46
2023/05/21 11:02:50;;;;;;;3.57;2.03;;;;;;;30.57;24.66;100942.77;1717825;82;25527;-46
2023/05/21 11:05:40;;;;;;;3.65;2.77;;;;;;;30.66;25.01;100938.77;1751777;81;25566;-47
2023/05/21 11:08:36;;;;;;;3.95;2.47;;;;;;;30.67;24.00;100940.36;1751770;81;26008;-46
2023/05/21 11:11:03;;;;;;;2.75;1.92;;;;;;;30.79;24.63;100931.30;1751918;81;25418;-46
2023/05/21 11:13:50;;;;;;;5.95;2.10;;;;;;;31.06;24.47;100938.09;1750596;81;27301;-47
2023/05/21 11:16:17;;;;;;;3.25;2.25;;;;;;;31.02;24.89;100928.20;1740922;82;25211;-50
2023/05/21 11:18:53;;;;;;;3.05;1.95;;;;;;;31.38;23.95;100931.52;1740906;82;25427;-51
2023/05/21 11:21:27;;;;;;;4.37;2.08;;;;;;;31.43;24.50;100923.41;1740982;82;25505;-51
2023/05/21 11:23:56;;;;;;;4.75;2.15;;;;;;;31.91;24.16;100932.17;1740419;82;25528;-51
2023/05/21 11:26:26;;;;;;;3.27;2.10;;;;;;;31.96;23.46;100921.03;1716339;82;27314;-51
2023/05/21 11:29:07;;;;;;;9.10;6.90;;;;;;;31.99;23.62;100921.55;1741007;82;25739;-52
2023/05/21 11:31:38;;;;;;;2.67;2.12;;;;;;;32.18;23.72;100925.44;1741063;82;25616;-52